Time;durP1;ratioP1;P1;durP2;ratioP2;P2;SDS_P1;SDS_P2;PMS_P1;PMS_P2;Temp;Humidity;BMP_temperature;BMP_pressure;BME280_temperature;BME280_humidity;BME280_pressure;Samples;Min_cycle;Max_cycle;Signal;HPM_P1;HPM_P2
2020/12/10 00:00:14;;;;;;;47.63;13.95;;;;;;;1.38;84.00;95543.69;5113219;28;20036;-73
2020/12/10 00:02:40;;;;;;;56.60;15.95;;;;;;;1.29;84.43;95540.78;5113747;28;20043;-72
2020/12/10 00:05:08;;;;;;;53.00;15.18;;;;;;;1.36;84.46;95542.34;5113067;28;20058;-72
2020/12/10 00:07:34;;;;;;;47.60;14.02;;;;;;;1.43;84.27;95540.19;5113373;27;20059;-72
2020/12/10 00:10:01;;;;;;;53.70;14.50;;;;;;;1.46;84.27;95537.75;5113460;28;20047;-73
2020/12/10 00:12:27;;;;;;;48.80;15.60;;;;;;;1.47;84.22;95528.63;5113173;28;20051;-72
2020/12/10 00:14:54;;;;;;;46.17;15.57;;;;;;;1.31;84.25;95529.81;5113467;28;20048;-73
2020/12/10 00:17:25;;;;;;;64.32;17.05;;;;;;;1.24;84.61;95530.09;5112972;27;20044;-72
2020/12/10 00:19:51;;;;;;;60.63;16.25;;;;;;;1.25;84.69;95526.38;5113458;28;20046;-73
2020/12/10 00:22:17;;;;;;;55.58;16.60;;;;;;;1.29;84.56;95522.03;5112883;28;20044;-73
2020/12/10 00:24:43;;;;;;;58.58;16.63;;;;;;;1.33;84.77;95521.47;5113148;28;20387;-72
2020/12/10 00:27:09;;;;;;;55.05;16.15;;;;;;;1.34;84.49;95517.72;5112286;27;20048;-73
2020/12/10 00:29:35;;;;;;;51.45;16.33;;;;;;;1.34;84.64;95517.72;5113188;28;20039;-72
2020/12/10 00:32:02;;;;;;;65.82;16.70;;;;;;;1.35;84.60;95519.31;5112671;27;20074;-72
2020/12/10 00:34:28;;;;;;;51.63;17.30;;;;;;;1.31;84.41;95513.72;5112896;28;20036;-73
2020/12/10 00:36:54;;;;;;;51.28;16.42;;;;;;;1.27;84.74;95518.81;5113160;28;20409;-73
2020/12/10 00:39:20;;;;;;;62.35;17.10;;;;;;;1.28;84.72;95514.25;5112502;28;20066;-72
2020/12/10 00:41:46;;;;;;;62.00;19.35;;;;;;;1.07;85.51;95512.81;5112838;28;20495;-72
2020/12/10 00:44:12;;;;;;;55.40;17.75;;;;;;;1.11;85.24;95514.66;5112451;28;20120;-72
2020/12/10 00:46:39;;;;;;;64.50;17.48;;;;;;;1.08;85.65;95515.19;5112566;27;20040;-72
2020/12/10 00:49:06;;;;;;;53.05;17.60;;;;;;;1.10;85.63;95507.69;5112494;28;20407;-72
2020/12/10 00:51:32;;;;;;;55.85;17.45;;;;;;;1.12;85.76;95504.72;5112673;28;20055;-74
2020/12/10 00:53:58;;;;;;;61.63;18.02;;;;;;;1.08;85.75;95504.47;5112691;27;20056;-72
2020/12/10 00:56:24;;;;;;;55.53;17.33;;;;;;;1.08;85.69;95493.75;5111928;28;20047;-72
2020/12/10 00:58:50;;;;;;;54.70;18.85;;;;;;;1.06;85.68;95501.28;5112761;27;20040;-74
2020/12/10 01:01:16;;;;;;;57.67;17.58;;;;;;;1.08;85.70;95493.75;5111899;27;20177;-74
2020/12/10 01:03:41;;;;;;;60.22;18.77;;;;;;;1.17;85.76;95497.44;5112416;28;20055;-72
2020/12/10 01:06:12;;;;;;;52.25;18.45;;;;;;;1.11;85.69;95501.25;5111921;28;20451;-72
2020/12/10 01:08:38;;;;;;;56.88;17.70;;;;;;;1.02;85.86;95505.59;5112460;28;20044;-74
2020/12/10 01:11:04;;;;;;;53.85;17.80;;;;;;;1.03;85.80;95507.19;5111875;28;20047;-74
2020/12/10 01:13:30;;;;;;;54.50;18.48;;;;;;;1.12;85.82;95504.72;5112252;28;20532;-74
2020/12/10 01:15:56;;;;;;;52.67;17.98;;;;;;;1.16;85.71;95506.56;5112037;27;20073;-74
2020/12/10 01:18:21;;;;;;;71.50;20.00;;;;;;;1.10;85.85;95499.66;5111540;28;20728;-74
2020/12/10 01:20:47;;;;;;;63.00;19.08;;;;;;;1.01;85.88;95495.94;5112155;28;20046;-74
2020/12/10 01:23:14;;;;;;;68.25;18.92;;;;;;;0.96;86.13;95495.97;5111378;27;20092;-74
2020/12/10 01:25:40;;;;;;;65.80;18.85;;;;;;;1.04;86.06;95498.06;5112040;27;20043;-74
2020/12/10 01:28:06;;;;;;;78.10;19.20;;;;;;;1.11;85.88;95497.75;5110077;28;20039;-74
2020/12/10 01:30:32;;;;;;;55.75;18.48;;;;;;;1.10;85.74;95496.97;5110552;28;20067;-74
2020/12/10 01:32:58;;;;;;;58.65;18.45;;;;;;;1.03;85.94;95491.09;5111808;28;20067;-74
2020/12/10 01:35:24;;;;;;;59.58;18.98;;;;;;;1.07;85.81;95496.72;5111121;27;20040;-74
2020/12/10 01:37:50;;;;;;;57.33;17.67;;;;;;;1.05;85.93;95494.31;5111786;28;20059;-74
2020/12/10 01:40:17;;;;;;;64.00;19.20;;;;;;;1.01;86.08;95488.72;5110647;28;20044;-74
2020/12/10 01:42:43;;;;;;;54.75;19.15;;;;;;;1.01;86.15;95487.91;5111603;28;20150;-74
2020/12/10 01:45:09;;;;;;;55.78;18.27;;;;;;;1.08;86.05;95483.03;5110969;28;20135;-74
2020/12/10 01:47:35;;;;;;;59.58;19.30;;;;;;;1.04;85.94;95481.97;5111458;28;20502;-74
2020/12/10 01:50:01;;;;;;;64.93;19.13;;;;;;;1.09;85.96;95484.63;5111180;27;20044;-73
2020/12/10 01:52:27;;;;;;;62.72;19.60;;;;;;;1.07;86.16;95481.44;5111522;27;20050;-74
2020/12/10 01:54:53;;;;;;;61.42;20.10;;;;;;;1.16;85.96;95478.97;5111328;28;20035;-73
2020/12/10 01:57:20;;;;;;;75.93;20.33;;;;;;;1.16;85.88;95474.41;5110617;27;20471;-73
2020/12/10 01:59:46;;;;;;;65.43;20.52;;;;;;;1.09;85.87;95468.53;5111166;27;20039;-74
2020/12/10 02:02:14;;;;;;;62.15;19.02;;;;;;;1.12;85.73;95478.72;5110751;27;20055;-73
2020/12/10 02:04:40;;;;;;;71.75;20.05;;;;;;;1.05;85.83;95483.59;5111227;28;20047;-73
2020/12/10 02:07:07;;;;;;;70.10;20.08;;;;;;;0.99;86.06;95473.97;5110612;28;20051;-74
2020/12/10 02:09:33;;;;;;;54.97;19.10;;;;;;;1.02;86.29;95462.69;5111359;27;20096;-74
2020/12/10 02:11:59;;;;;;;69.05;20.58;;;;;;;0.96;86.27;95458.44;5110948;28;20047;-73
2020/12/10 02:14:32;;;;;;;66.50;20.10;;;;;;;1.04;86.40;95452.47;5110525;28;20044;-74
2020/12/10 02:17:00;;;;;;;64.82;19.00;;;;;;;1.11;86.15;95455.66;5111188;28;20058;-73
2020/12/10 02:19:26;;;;;;;58.90;19.75;;;;;;;1.14;85.93;95449.72;5110786;27;20657;-73
2020/12/10 02:21:52;;;;;;;66.03;20.13;;;;;;;1.20;85.97;95442.44;5110906;28;20657;-74
2020/12/10 02:24:19;;;;;;;67.65;19.98;;;;;;;1.09;85.80;95444.41;5110424;28;20043;-73
2020/12/10 02:26:46;;;;;;;61.33;19.02;;;;;;;1.17;85.97;95448.38;5110277;28;20050;-74
2020/12/10 02:29:12;;;;;;;63.20;19.95;;;;;;;1.22;85.70;95449.13;5110361;28;20070;-74
2020/12/10 02:31:38;;;;;;;71.55;19.77;;;;;;;1.24;85.63;95449.66;5110622;27;20047;-74
2020/12/10 02:34:06;;;;;;;65.15;20.55;;;;;;;1.18;85.43;95444.63;5110042;28;20086;-73
2020/12/10 02:36:34;;;;;;;60.13;18.88;;;;;;;1.25;85.63;95434.34;5110864;28;20088;-74
2020/12/10 02:39:01;;;;;;;68.75;19.73;;;;;;;1.23;85.25;95431.97;5110662;28;20055;-73
2020/12/10 02:41:28;;;;;;;70.03;20.10;;;;;;;1.29;85.27;95422.00;5110330;28;20398;-74
2020/12/10 02:43:54;;;;;;;62.53;18.38;;;;;;;1.32;85.13;95418.75;5110582;28;20032;-74
2020/12/10 02:46:20;;;;;;;67.18;19.50;;;;;;;1.30;84.99;95427.09;5110001;28;20557;-73
2020/12/10 02:48:46;;;;;;;69.25;19.77;;;;;;;1.37;84.98;95432.13;5110483;28;20415;-73
2020/12/10 02:51:13;;;;;;;59.72;19.17;;;;;;;1.42;85.09;95426.72;5109333;27;20049;-73
2020/12/10 02:53:39;;;;;;;63.15;19.35;;;;;;;1.42;84.74;95417.88;5110352;28;20058;-74
2020/12/10 02:56:09;;;;;;;61.88;19.52;;;;;;;1.22;84.71;95400.88;5105136;28;20055;-73
2020/12/10 02:58:37;;;;;;;67.70;19.58;;;;;;;1.23;85.02;95405.16;5110210;28;20047;-74
2020/12/10 03:01:03;;;;;;;58.70;19.05;;;;;;;1.32;84.77;95412.59;5110035;28;20051;-74
2020/12/10 03:03:29;;;;;;;75.07;20.25;;;;;;;1.39;84.69;95413.84;5110231;28;20387;-74
2020/12/10 03:05:55;;;;;;;57.75;19.13;;;;;;;1.38;84.64;95411.47;5110220;28;20039;-73
2020/12/10 03:08:21;;;;;;;68.43;18.63;;;;;;;1.45;84.63;95403.88;5109768;28;20177;-74
2020/12/10 03:10:48;;;;;;;73.28;20.15;;;;;;;1.48;84.21;95406.00;5110187;28;20040;-73
2020/12/10 03:13:15;;;;;;;58.50;18.42;;;;;;;1.51;84.27;95403.56;5109758;28;20067;-73
2020/12/10 03:15:41;;;;;;;71.03;19.48;;;;;;;1.58;84.20;95399.72;5110337;28;20042;-74
2020/12/10 03:18:07;;;;;;;62.47;18.35;;;;;;;1.60;84.03;95397.56;5109745;28;20066;-73
2020/12/10 03:20:33;;;;;;;58.47;18.55;;;;;;;1.64;84.08;95388.66;5110296;28;20542;-73
2020/12/10 03:22:59;;;;;;;58.08;17.70;;;;;;;1.63;83.70;95381.69;5110234;28;20131;-73
2020/12/10 03:25:25;;;;;;;72.85;20.20;;;;;;;1.51;83.44;95373.22;5109361;28;20040;-74
2020/12/10 03:27:51;;;;;;;66.93;18.80;;;;;;;1.50;83.44;95372.41;5109936;28;20040;-74
2020/12/10 03:30:17;;;;;;;63.03;19.15;;;;;;;1.56;83.85;95373.97;5109646;28;20043;-74
2020/12/10 03:32:44;;;;;;;60.60;19.10;;;;;;;1.53;83.55;95365.69;5110008;28;20425;-73
2020/12/10 03:35:10;;;;;;;59.75;18.25;;;;;;;1.50;83.51;95363.56;5109487;28;20052;-74
2020/12/10 03:37:36;;;;;;;53.47;18.75;;;;;;;1.52;83.61;95370.28;5110087;28;20043;-73
2020/12/10 03:40:03;;;;;;;61.63;19.33;;;;;;;1.56;83.61;95359.75;5109351;28;20039;-74
2020/12/10 03:42:29;;;;;;;65.13;19.45;;;;;;;1.50;83.63;95355.53;5109735;28;20491;-73
2020/12/10 03:44:55;;;;;;;59.08;19.48;;;;;;;1.45;83.51;95352.91;5109770;28;20043;-74
2020/12/10 03:47:21;;;;;;;65.90;19.65;;;;;;;1.49;83.54;95356.63;5109677;28;20074;-74
2020/12/10 03:49:49;;;;;;;68.45;20.58;;;;;;;1.54;83.62;95348.50;5110004;28;20491;-73
2020/12/10 03:52:15;;;;;;;61.42;19.30;;;;;;;1.50;83.46;95344.78;5109291;28;20112;-73
2020/12/10 03:54:41;;;;;;;64.05;19.58;;;;;;;1.51;83.46;95346.38;5109785;28;20058;-74
2020/12/10 03:57:07;;;;;;;71.15;19.50;;;;;;;1.57;83.59;95353.31;5108999;28;20047;-73
2020/12/10 03:59:33;;;;;;;59.50;18.67;;;;;;;1.60;83.58;95347.38;5109834;28;20066;-72
2020/12/10 04:01:59;;;;;;;72.85;20.20;;;;;;;1.59;83.28;95344.97;5110282;28;20052;-74
2020/12/10 04:04:25;;;;;;;59.17;17.52;;;;;;;1.63;83.49;95348.69;5113273;27;20043;-73
2020/12/10 04:06:52;;;;;;;66.78;19.35;;;;;;;1.63;83.28;95349.50;5113441;28;20061;-73
2020/12/10 04:09:18;;;;;;;65.45;19.13;;;;;;;1.67;83.37;95347.84;5113141;28;20170;-74
2020/12/10 04:11:44;;;;;;;66.95;19.30;;;;;;;1.70;83.02;95346.47;5113452;28;20052;-73
2020/12/10 04:14:10;;;;;;;67.32;18.90;;;;;;;1.74;83.13;95342.13;5113067;28;20057;-73
2020/12/10 04:16:37;;;;;;;63.90;19.55;;;;;;;1.77;83.06;95350.38;5113548;28;20047;-73
2020/12/10 04:19:04;;;;;;;65.93;19.60;;;;;;;1.79;83.16;95342.88;5112899;27;20498;-74
2020/12/10 04:21:30;;;;;;;64.72;19.70;;;;;;;1.85;83.18;95345.47;5113644;28;20050;-73
2020/12/10 04:23:56;;;;;;;57.42;18.52;;;;;;;1.89;83.08;95343.84;5113240;27;20051;-74
2020/12/10 04:26:22;;;;;;;62.97;19.67;;;;;;;1.92;83.05;95351.28;5112075;28;20402;-73
2020/12/10 04:28:49;;;;;;;68.22;20.05;;;;;;;1.91;82.74;95344.34;5113106;28;20384;-73
2020/12/10 04:31:16;;;;;;;58.60;18.90;;;;;;;1.95;82.71;95345.38;5112804;27;20074;-74
2020/12/10 04:33:42;;;;;;;62.38;18.80;;;;;;;1.98;82.62;95340.19;5112634;28;20478;-73
2020/12/10 04:36:08;;;;;;;58.58;17.85;;;;;;;1.99;82.52;95347.19;5112763;28;20048;-73
2020/12/10 04:38:34;;;;;;;61.22;18.88;;;;;;;1.99;82.05;95346.41;5112764;28;20058;-74
2020/12/10 04:41:02;;;;;;;60.50;19.13;;;;;;;2.01;81.71;95352.25;5113030;28;20043;-73
2020/12/10 04:43:28;;;;;;;60.33;18.70;;;;;;;2.00;81.62;95353.34;5112516;28;20096;-74
2020/12/10 04:45:57;;;;;;;57.60;17.95;;;;;;;1.95;81.35;95348.03;5112681;27;20047;-73
2020/12/10 04:48:25;;;;;;;66.05;18.20;;;;;;;1.92;81.56;95349.41;5112206;28;20096;-73
2020/12/10 04:50:52;;;;;;;60.80;19.05;;;;;;;1.91;81.75;95344.34;5112524;27;20051;-73
2020/12/10 04:53:18;;;;;;;61.17;18.88;;;;;;;1.91;81.90;95349.69;5111904;27;20044;-73
2020/12/10 04:55:45;;;;;;;65.75;19.15;;;;;;;1.93;81.87;95352.88;5112356;28;20048;-73
2020/12/10 04:58:11;;;;;;;59.40;19.45;;;;;;;1.96;81.98;95342.38;5112388;28;20046;-73
2020/12/10 05:00:37;;;;;;;67.82;19.25;;;;;;;1.98;81.86;95350.13;5112713;28;20039;-74
2020/12/10 05:03:03;;;;;;;65.38;19.08;;;;;;;1.97;82.11;95346.66;5111954;27;20043;-73
2020/12/10 05:05:31;;;;;;;69.38;20.60;;;;;;;1.97;82.01;95348.53;5112453;28;20466;-73
2020/12/10 05:07:59;;;;;;;66.65;19.35;;;;;;;2.00;82.09;95353.34;5112537;27;20491;-73
2020/12/10 05:10:25;;;;;;;62.47;19.02;;;;;;;2.03;82.16;95358.13;5111946;28;20043;-73
2020/12/10 05:12:51;;;;;;;69.13;19.00;;;;;;;2.05;82.00;95350.59;5112353;28;20040;-74
2020/12/10 05:15:31;;;;;;;60.50;17.83;;;;;;;2.08;82.01;95344.63;5110837;27;20066;-73
2020/12/10 05:18:03;;;;;;;62.92;18.52;;;;;;;2.12;81.85;95345.66;5112097;28;20092;-73
2020/12/10 05:20:38;;;;;;;63.17;20.05;;;;;;;2.12;81.50;95344.88;5112030;28;20118;-73
2020/12/10 05:23:04;;;;;;;62.70;19.60;;;;;;;2.13;81.74;95347.25;5111604;28;20051;-74
2020/12/10 05:25:30;;;;;;;69.82;20.13;;;;;;;2.12;81.61;95351.03;5112031;28;20040;-73
2020/12/10 05:27:59;;;;;;;58.13;18.88;;;;;;;2.12;81.53;95345.66;5111889;28;20199;-73
2020/12/10 05:30:26;;;;;;;60.88;19.27;;;;;;;2.14;81.60;95335.44;5111294;27;20097;-74
2020/12/10 05:32:52;;;;;;;59.83;20.17;;;;;;;2.16;81.62;95340.53;5111891;28;20039;-73
2020/12/10 05:35:21;;;;;;;60.00;17.70;;;;;;;2.16;81.56;95341.31;5111081;28;20050;-73
2020/12/10 05:37:48;;;;;;;60.35;19.50;;;;;;;2.18;81.55;95339.13;5111670;28;20040;-73
2020/12/10 05:40:15;;;;;;;57.42;18.73;;;;;;;2.18;81.32;95333.75;5111394;28;20046;-74
2020/12/10 05:42:43;;;;;;;53.35;18.88;;;;;;;2.18;81.16;95331.09;5111422;28;20035;-73
2020/12/10 05:45:11;;;;;;;65.90;19.08;;;;;;;2.18;81.21;95333.75;5111138;28;20054;-73
2020/12/10 05:47:56;;;;;;;59.42;18.88;;;;;;;2.18;81.25;95333.75;5111666;28;20046;-74
2020/12/10 05:50:26;;;;;;;55.05;18.42;;;;;;;2.19;81.40;95324.63;5111044;28;20044;-73
2020/12/10 05:53:03;;;;;;;57.83;19.10;;;;;;;2.20;81.11;95331.59;5111580;27;20058;-74
2020/12/10 05:55:29;;;;;;;65.78;19.48;;;;;;;2.21;80.96;95327.81;5111345;28;20112;-73
2020/12/10 05:57:55;;;;;;;65.35;19.40;;;;;;;2.21;80.66;95327.81;5111377;28;20050;-73
2020/12/10 06:00:21;;;;;;;55.08;19.17;;;;;;;2.20;80.49;95320.88;5111031;27;20074;-73
2020/12/10 06:02:49;;;;;;;64.38;19.48;;;;;;;2.21;80.50;95327.81;5111428;28;20047;-73
2020/12/10 06:05:17;;;;;;;68.93;19.63;;;;;;;2.21;80.65;95330.50;5110703;28;20043;-73
2020/12/10 06:08:01;;;;;;;53.50;18.65;;;;;;;2.21;80.56;95322.47;5111298;28;20039;-74
2020/12/10 06:10:27;;;;;;;69.88;19.63;;;;;;;2.22;80.66;95324.03;5102632;28;20050;-73
2020/12/10 06:12:54;;;;;;;57.17;18.63;;;;;;;2.24;80.80;95326.44;5111349;28;20089;-74
2020/12/10 06:15:24;;;;;;;70.15;20.05;;;;;;;2.24;80.66;95335.28;5110738;28;20047;-74
2020/12/10 06:18:08;;;;;;;72.22;21.00;;;;;;;2.27;80.67;95339.28;5111108;28;20042;-73
2020/12/10 06:20:37;;;;;;;65.72;19.88;;;;;;;2.26;80.48;95338.50;5110982;28;20122;-74
2020/12/10 06:23:36;;;;;;;66.47;20.25;;;;;;;2.24;80.53;95327.22;5110585;28;20056;-73
2020/12/10 06:26:34;;;;;;;68.25;21.00;;;;;;;2.23;80.85;95330.22;5110012;28;20123;-73
2020/12/10 06:29:21;;;;;;;69.40;20.65;;;;;;;2.23;80.80;95330.22;5047693;28;20052;-73
2020/12/10 06:32:06;;;;;;;74.78;20.75;;;;;;;2.25;81.05;95333.44;5086375;28;20044;-73
2020/12/10 06:34:33;;;;;;;47.25;21.48;;;;;;;2.25;81.04;95339.59;5109971;28;20044;-73
2020/12/10 06:37:17;;;;;;;47.75;21.20;;;;;;;2.26;81.22;95332.34;5110098;28;20047;-73
2020/12/10 06:39:43;;;;;;;45.47;20.63;;;;;;;2.27;81.13;95332.03;5089764;28;20039;-74
2020/12/10 06:42:10;;;;;;;44.75;20.20;;;;;;;2.30;81.20;95336.84;5089114;28;20047;-73
2020/12/10 06:44:36;;;;;;;42.80;20.65;;;;;;;2.31;80.92;95337.63;5090352;28;20075;-74
2020/12/10 06:47:03;;;;;;;44.85;20.10;;;;;;;2.29;81.09;95337.91;5089667;28;20055;-73
2020/12/10 06:49:30;;;;;;;52.00;22.42;;;;;;;2.29;81.13;95335.22;5090256;28;20040;-73
2020/12/10 06:52:15;;;;;;;52.33;22.67;;;;;;;2.31;80.85;95337.63;5090372;28;20051;-73
2020/12/10 06:55:06;;;;;;;47.28;21.40;;;;;;;2.30;80.62;95331.47;5110028;28;20399;-73
2020/12/10 06:57:53;;;;;;;47.08;21.55;;;;;;;2.28;80.38;95333.63;5107039;28;20449;-73
2020/12/10 07:00:42;;;;;;;46.65;19.90;;;;;;;2.27;80.59;95329.34;5110158;28;20040;-73
2020/12/10 07:03:10;;;;;;;49.58;21.20;;;;;;;2.27;80.71;95332.03;5110026;28;20048;-73
2020/12/10 07:05:36;;;;;;;51.38;22.58;;;;;;;2.28;80.64;95336.31;5110300;28;20044;-73
2020/12/10 07:08:07;;;;;;;54.90;21.92;;;;;;;2.27;80.71;95340.09;5109989;28;20051;-73
2020/12/10 07:10:38;;;;;;;47.05;21.98;;;;;;;2.30;80.85;95346.78;5110450;28;20051;-73
2020/12/10 07:13:04;;;;;;;52.40;22.48;;;;;;;2.30;80.68;95344.09;5110071;28;20058;-73
2020/12/10 07:15:30;;;;;;;50.08;21.27;;;;;;;2.30;80.94;95336.03;5110339;28;20486;-73
2020/12/10 07:17:57;;;;;;;51.55;23.05;;;;;;;2.31;80.77;95338.44;5110263;28;20054;-74
2020/12/10 07:20:24;;;;;;;52.55;21.77;;;;;;;2.32;80.71;95329.28;5109939;28;20043;-74
2020/12/10 07:22:50;;;;;;;57.30;23.88;;;;;;;2.34;80.57;95337.03;5110487;28;20043;-73
2020/12/10 07:25:17;;;;;;;61.58;24.65;;;;;;;2.35;80.47;95328.72;5111888;27;20047;-73
2020/12/10 07:27:43;;;;;;;59.97;25.05;;;;;;;2.38;80.51;95326.53;5110184;28;20043;-73
2020/12/10 07:30:10;;;;;;;55.60;24.30;;;;;;;2.38;80.33;95332.69;5109796;28;20040;-73
2020/12/10 07:32:36;;;;;;;56.72;23.55;;;;;;;2.38;80.48;95327.31;5110218;28;20044;-73
2020/12/10 07:35:02;;;;;;;57.05;24.50;;;;;;;2.39;80.43;95325.44;5109636;28;20506;-73
2020/12/10 07:37:31;;;;;;;55.97;24.73;;;;;;;2.36;80.31;95321.44;5111433;28;20043;-73
2020/12/10 07:39:57;;;;;;;53.90;23.48;;;;;;;2.37;80.34;95330.31;5114241;27;20131;-74
2020/12/10 07:42:24;;;;;;;59.50;24.13;;;;;;;2.39;80.64;95331.59;5113879;28;20051;-74
2020/12/10 07:44:50;;;;;;;54.75;23.30;;;;;;;2.40;80.62;95321.63;5114198;28;20123;-75
2020/12/10 07:47:17;;;;;;;62.30;24.77;;;;;;;2.40;80.45;95319.75;5110210;28;20043;-75
2020/12/10 07:49:43;;;;;;;54.50;22.15;;;;;;;2.41;80.28;95318.69;5093529;28;20139;-75
2020/12/10 07:52:10;;;;;;;56.72;21.95;;;;;;;2.42;80.43;95311.41;5093143;28;20127;-75
2020/12/10 07:54:43;;;;;;;49.42;22.13;;;;;;;2.43;80.61;95321.06;5093571;28;20043;-74
2020/12/10 07:57:17;;;;;;;56.13;22.90;;;;;;;2.44;80.54;95306.53;5114936;27;20062;-75
2020/12/10 07:59:47;;;;;;;58.58;23.08;;;;;;;2.46;80.56;95315.13;5113736;28;20494;-74
2020/12/10 08:02:18;;;;;;;55.13;23.63;;;;;;;2.46;80.36;95313.22;5113210;28;20047;-75
2020/12/10 08:04:45;;;;;;;55.83;23.42;;;;;;;2.45;80.33;95305.44;5113852;27;20039;-75
2020/12/10 08:07:13;;;;;;;57.58;23.02;;;;;;;2.46;80.31;95296.31;5112733;28;20101;-75
2020/12/10 08:09:39;;;;;;;54.72;20.75;;;;;;;2.48;80.50;95299.50;5113668;28;20051;-75
2020/12/10 08:12:13;;;;;;;48.33;21.30;;;;;;;2.48;80.43;95294.94;5113095;28;20731;-75
2020/12/10 08:14:39;;;;;;;52.75;22.00;;;;;;;2.49;80.58;95291.13;5113361;27;20077;-75
2020/12/10 08:17:19;;;;;;;55.38;21.98;;;;;;;2.51;80.32;95293.56;5112962;28;20059;-74
2020/12/10 08:19:54;;;;;;;55.28;23.02;;;;;;;2.52;80.36;95295.16;5113007;28;20500;-75
2020/12/10 08:22:23;;;;;;;56.53;22.88;;;;;;;2.51;80.50;95297.03;5113144;28;20046;-74
2020/12/10 08:24:49;;;;;;;56.63;22.95;;;;;;;2.53;80.36;95296.75;5113367;28;20486;-75
2020/12/10 08:27:16;;;;;;;55.92;22.85;;;;;;;2.54;80.38;95292.94;5113984;27;20043;-75
2020/12/10 08:29:58;;;;;;;57.00;23.10;;;;;;;2.56;80.40;95290.78;5113251;27;20050;-75
2020/12/10 08:32:25;;;;;;;58.53;23.15;;;;;;;2.57;80.55;95290.50;5112539;28;20372;-75
2020/12/10 08:35:02;;;;;;;57.85;23.73;;;;;;;2.60;80.48;95299.84;5127872;27;20196;-75
2020/12/10 08:37:37;;;;;;;59.10;24.30;;;;;;;2.61;80.74;95293.41;5132345;27;20128;-75
2020/12/10 08:40:04;;;;;;;53.63;22.73;;;;;;;2.60;80.66;95289.88;5132736;27;20058;-74
2020/12/10 08:42:30;;;;;;;53.88;22.50;;;;;;;2.63;80.38;95295.78;5133185;27;20148;-75
2020/12/10 08:44:56;;;;;;;54.15;22.05;;;;;;;2.62;80.65;95292.31;5133134;27;20062;-75
2020/12/10 08:47:24;;;;;;;55.33;23.05;;;;;;;2.69;80.61;95294.59;5132569;27;20036;-74
2020/12/10 08:50:06;;;;;;;54.63;23.77;;;;;;;2.71;80.47;95301.28;5131483;27;20062;-75
2020/12/10 08:52:32;;;;;;;58.95;24.88;;;;;;;2.71;80.29;95298.59;5112341;28;20063;-74
2020/12/10 08:54:59;;;;;;;49.85;20.80;;;;;;;2.73;80.28;95296.41;5115471;27;20043;-74
2020/12/10 08:57:25;;;;;;;54.65;23.17;;;;;;;2.76;80.38;95301.19;5132841;27;20043;-74
2020/12/10 08:59:51;;;;;;;58.55;23.63;;;;;;;2.81;80.44;95300.31;5132303;27;20064;-75
2020/12/10 09:02:17;;;;;;;50.83;21.88;;;;;;;2.84;80.58;95303.22;5132133;27;20043;-74
2020/12/10 09:04:44;;;;;;;53.65;20.75;;;;;;;2.85;79.84;95299.44;5132689;27;20035;-74
2020/12/10 09:07:11;;;;;;;53.47;21.88;;;;;;;2.87;79.16;95307.19;5132463;27;20104;-75
2020/12/10 09:09:38;;;;;;;53.10;21.08;;;;;;;2.91;79.13;95302.03;5132868;27;20047;-74
2020/12/10 09:12:04;;;;;;;51.75;21.23;;;;;;;2.92;79.13;95296.34;5132257;27;20522;-73
2020/12/10 09:14:30;;;;;;;47.80;19.98;;;;;;;2.96;79.39;95305.44;5132777;27;20039;-74
2020/12/10 09:16:56;;;;;;;46.97;19.55;;;;;;;3.00;79.27;95300.28;5132781;27;20069;-75
2020/12/10 09:19:22;;;;;;;49.70;20.13;;;;;;;2.99;78.66;95291.41;5132226;27;20038;-74
2020/12/10 09:21:49;;;;;;;48.13;20.73;;;;;;;3.03;78.65;95297.81;5132558;27;20391;-74
2020/12/10 09:24:16;;;;;;;47.50;19.70;;;;;;;3.06;78.64;95293.72;5132242;27;20047;-74
2020/12/10 09:26:42;;;;;;;45.55;18.65;;;;;;;3.08;78.85;95291.50;5132326;27;20039;-74
2020/12/10 09:29:08;;;;;;;46.00;18.88;;;;;;;3.09;78.73;95279.69;5131904;27;20521;-74
2020/12/10 09:31:34;;;;;;;49.00;19.63;;;;;;;3.10;79.00;95292.03;5132472;27;20583;-74
2020/12/10 09:34:00;;;;;;;46.28;19.73;;;;;;;3.09;79.15;95282.38;5132126;27;20062;-75
2020/12/10 09:36:26;;;;;;;47.25;19.00;;;;;;;3.08;79.21;95289.66;5130620;27;20043;-75
2020/12/10 09:38:52;;;;;;;45.88;19.27;;;;;;;3.05;78.99;95281.38;5132256;27;20057;-74
2020/12/10 09:41:22;;;;;;;49.35;18.15;;;;;;;3.03;79.16;95283.56;5131602;27;20050;-74
2020/12/10 09:43:48;;;;;;;45.42;18.27;;;;;;;3.00;79.14;95284.13;5132232;27;20126;-75
2020/12/10 09:46:14;;;;;;;44.88;18.80;;;;;;;2.98;78.99;95286.34;5131477;27;20051;-74
2020/12/10 09:48:40;;;;;;;50.30;19.05;;;;;;;2.98;78.95;95286.34;5132018;27;20463;-75
2020/12/10 09:51:08;;;;;;;44.40;18.92;;;;;;;2.99;79.20;95287.94;5131437;27;20494;-75
2020/12/10 09:53:38;;;;;;;46.55;20.08;;;;;;;2.97;79.07;95290.09;5132082;27;20053;-74
2020/12/10 09:58:49;;;;;;;47.28;20.23;;;;;;;2.92;79.43;95288.28;5132069;27;20047;-74
2020/12/10 10:01:15;;;;;;;46.63;19.95;;;;;;;2.88;79.34;95282.72;5131132;27;20047;-74
2020/12/10 10:03:41;;;;;;;55.67;23.05;;;;;;;2.84;79.51;95281.72;5131966;27;20062;-74
2020/12/10 10:06:10;;;;;;;50.38;19.73;;;;;;;2.85;79.84;95272.53;5131684;27;20130;-75
2020/12/10 10:08:36;;;;;;;50.67;20.45;;;;;;;2.85;80.15;95277.91;5131656;27;20045;-74
2020/12/10 10:11:02;;;;;;;49.92;19.45;;;;;;;2.90;80.40;95268.19;5131436;27;20517;-74
2020/12/10 10:13:28;;;;;;;49.13;20.27;;;;;;;2.88;80.41;95269.28;5131185;27;20043;-75
2020/12/10 10:15:55;;;;;;;48.45;19.40;;;;;;;2.89;80.66;95264.69;5131465;27;20045;-74
2020/12/10 10:18:22;;;;;;;50.63;19.73;;;;;;;2.92;80.74;95272.16;5131043;27;20134;-75
2020/12/10 10:20:48;;;;;;;47.63;18.33;;;;;;;2.95;80.75;95270.78;5131159;27;20092;-74
2020/12/10 10:23:14;;;;;;;45.85;19.90;;;;;;;2.95;80.25;95255.44;5130907;27;20047;-74
2020/12/10 10:25:40;;;;;;;47.33;19.02;;;;;;;2.93;80.37;95263.00;5131157;27;20042;-74
2020/12/10 10:28:07;;;;;;;45.60;17.70;;;;;;;2.97;80.56;95252.44;5130833;27;20054;-74
2020/12/10 10:30:33;;;;;;;44.90;18.75;;;;;;;2.97;80.37;95252.44;5131198;27;20039;-74
2020/12/10 10:33:01;;;;;;;44.45;17.35;;;;;;;3.00;80.59;95246.50;5131507;27;20122;-74
2020/12/10 10:35:27;;;;;;;44.20;18.42;;;;;;;3.03;80.80;95241.31;5130898;27;20122;-73
2020/12/10 10:37:53;;;;;;;44.28;18.15;;;;;;;3.12;81.19;95238.72;5131306;27;20164;-73
2020/12/10 10:40:20;;;;;;;39.42;16.90;;;;;;;3.21;81.58;95236.94;5130637;27;20518;-74
2020/12/10 10:42:46;;;;;;;40.40;16.27;;;;;;;3.30;81.70;95234.38;5131144;27;20035;-73
2020/12/10 10:45:14;;;;;;;37.88;16.35;;;;;;;3.36;81.14;95230.47;5130495;27;20108;-75
2020/12/10 10:47:40;;;;;;;39.95;15.45;;;;;;;3.38;80.85;95230.97;5131160;27;20050;-74
2020/12/10 10:50:07;;;;;;;32.38;14.10;;;;;;;3.43;80.87;95227.38;5130232;27;20118;-74
2020/12/10 10:52:33;;;;;;;33.55;13.65;;;;;;;3.45;80.36;95230.59;5131021;27;20050;-74
2020/12/10 10:54:59;;;;;;;29.10;12.93;;;;;;;3.49;80.07;95223.47;5130983;27;20039;-74
2020/12/10 10:57:26;;;;;;;34.25;14.20;;;;;;;3.54;80.07;95224.16;5130202;27;20039;-75
2020/12/10 10:59:52;;;;;;;34.38;13.43;;;;;;;3.54;79.22;95220.69;5131002;27;20043;-74
2020/12/10 11:02:18;;;;;;;28.58;12.73;;;;;;;3.59;80.17;95218.69;5128982;27;20047;-74
2020/12/10 11:04:43;;;;;;;26.00;11.35;;;;;;;3.54;78.90;95213.41;5130827;27;20047;-75
2020/12/10 11:07:10;;;;;;;25.92;11.82;;;;;;;3.55;78.35;95211.50;5130245;27;20744;-74
2020/12/10 11:09:36;;;;;;;21.63;10.35;;;;;;;3.57;77.78;95209.31;5130811;27;20046;-74
2020/12/10 11:12:07;;;;;;;25.65;10.82;;;;;;;3.57;77.78;95212.03;5128315;27;20043;-74
2020/12/10 11:14:33;;;;;;;25.42;11.00;;;;;;;3.54;78.31;95204.53;5130646;27;20043;-74
2020/12/10 11:17:02;;;;;;;23.50;11.63;;;;;;;3.55;78.14;95198.88;5130673;27;20405;-74
2020/12/10 11:19:28;;;;;;;27.80;12.38;;;;;;;3.59;78.51;95199.84;5130104;27;20035;-74
2020/12/10 11:21:54;;;;;;;21.23;10.40;;;;;;;3.63;78.08;95200.84;5130684;27;20518;-75
2020/12/10 11:24:24;;;;;;;25.38;10.95;;;;;;;3.63;78.07;95200.03;5130133;27;22190;-74
2020/12/10 11:26:51;;;;;;;21.52;9.52;;;;;;;3.64;78.59;95202.44;5130308;27;20043;-74
2020/12/10 11:29:17;;;;;;;22.52;10.35;;;;;;;3.68;78.51;95202.63;5129875;27;20039;-74